sensor_id;sensor_type;location;lat;lon;timestamp;pressure;altitude;pressure_sealevel;temperature;humidity
75063;BME280;63981;51.052;13.754;2023-04-08T00:00:01;100746.97;;;4.92;86.40
75063;BME280;63981;51.052;13.754;2023-04-08T00:02:27;100745.56;;;4.83;87.28
75063;BME280;63981;51.052;13.754;2023-04-08T00:04:52;100741.66;;;4.68;88.58
75063;BME280;63981;51.052;13.754;2023-04-08T00:07:18;100751.50;;;4.87;88.08
75063;BME280;63981;51.052;13.754;2023-04-08T00:09:43;100746.13;;;4.91;87.91
75063;BME280;63981;51.052;13.754;2023-04-08T00:12:09;100745.81;;;5.00;87.07
75063;BME280;63981;51.052;13.754;2023-04-08T00:14:35;100739.63;;;5.03;86.88
75063;BME280;63981;51.052;13.754;2023-04-08T00:17:03;100678.78;;;4.50;88.24
75063;BME280;63981;51.052;13.754;2023-04-08T00:19:28;100751.72;;;5.06;86.99
75063;BME280;63981;51.052;13.754;2023-04-08T00:21:54;100672.38;;;4.60;86.75
75063;BME280;63981;51.052;13.754;2023-04-08T00:24:20;100744.28;;;4.95;87.97
75063;BME280;63981;51.052;13.754;2023-04-08T00:26:45;100741.97;;;4.86;87.00
75063;BME280;63981;51.052;13.754;2023-04-08T00:29:11;100747.88;;;4.91;87.46
75063;BME280;63981;51.052;13.754;2023-04-08T00:31:37;100746.28;;;4.87;87.57
75063;BME280;63981;51.052;13.754;2023-04-08T00:34:02;100742.28;;;5.01;88.45
75063;BME280;63981;51.052;13.754;2023-04-08T00:36:29;100749.75;;;5.12;88.38
75063;BME280;63981;51.052;13.754;2023-04-08T00:38:56;100755.09;;;5.09;87.66
75063;BME280;63981;51.052;13.754;2023-04-08T00:41:22;100745.22;;;5.17;87.57
75063;BME280;63981;51.052;13.754;2023-04-08T00:43:48;100753.53;;;5.03;88.02
75063;BME280;63981;51.052;13.754;2023-04-08T00:46:14;100736.09;;;5.04;87.56
75063;BME280;63981;51.052;13.754;2023-04-08T00:48:39;100753.28;;;5.11;88.02
75063;BME280;63981;51.052;13.754;2023-04-08T00:51:05;100748.06;;;5.11;87.96
75063;BME280;63981;51.052;13.754;2023-04-08T00:53:32;100750.66;;;5.11;87.56
75063;BME280;63981;51.052;13.754;2023-04-08T00:55:58;100754.13;;;5.12;87.91
75063;BME280;63981;51.052;13.754;2023-04-08T00:58:26;100745.22;;;4.92;87.58
75063;BME280;63981;51.052;13.754;2023-04-08T01:01:00;100749.44;;;4.96;88.58
75063;BME280;63981;51.052;13.754;2023-04-08T01:06:24;100744.84;;;5.03;88.94
75063;BME280;63981;51.052;13.754;2023-04-08T01:08:53;100739.00;;;5.20;88.58
75063;BME280;63981;51.052;13.754;2023-04-08T01:11:19;100672.25;;;4.63;88.07
75063;BME280;63981;51.052;13.754;2023-04-08T01:13:48;100742.47;;;5.20;87.80
75063;BME280;63981;51.052;13.754;2023-04-08T01:16:19;100739.44;;;5.08;87.57
75063;BME280;63981;51.052;13.754;2023-04-08T01:18:46;100742.56;;;5.42;88.50
75063;BME280;63981;51.052;13.754;2023-04-08T01:21:13;100740.50;;;5.27;88.29
75063;BME280;63981;51.052;13.754;2023-04-08T01:24:38;100733.22;;;5.12;88.68
75063;BME280;63981;51.052;13.754;2023-04-08T01:26:45;100740.28;;;5.10;88.45
75063;BME280;63981;51.052;13.754;2023-04-08T01:29:11;100736.88;;;5.31;89.05
75063;BME280;63981;51.052;13.754;2023-04-08T01:31:39;100735.75;;;5.38;87.48
75063;BME280;63981;51.052;13.754;2023-04-08T01:34:06;100697.13;;;4.98;88.42
75063;BME280;63981;51.052;13.754;2023-04-08T01:36:33;100699.81;;;5.20;88.02
75063;BME280;63981;51.052;13.754;2023-04-08T01:39:01;100725.97;;;5.43;89.13
75063;BME280;63981;51.052;13.754;2023-04-08T01:41:32;100732.00;;;5.22;89.83
75063;BME280;63981;51.052;13.754;2023-04-08T01:43:58;100736.56;;;5.15;88.65
75063;BME280;63981;51.052;13.754;2023-04-08T01:46:26;100727.50;;;5.25;88.53
75063;BME280;63981;51.052;13.754;2023-04-08T01:48:53;100728.97;;;5.32;89.02
75063;BME280;63981;51.052;13.754;2023-04-08T01:51:21;100735.22;;;5.28;90.14
75063;BME280;63981;51.052;13.754;2023-04-08T01:53:47;100737.25;;;5.20;89.29
75063;BME280;63981;51.052;13.754;2023-04-08T01:56:14;100733.78;;;5.20;89.14
75063;BME280;63981;51.052;13.754;2023-04-08T01:58:45;100729.47;;;5.19;89.44
75063;BME280;63981;51.052;13.754;2023-04-08T02:01:14;100738.31;;;5.40;90.15
75063;BME280;63981;51.052;13.754;2023-04-08T02:03:43;100685.84;;;4.97;90.03
75063;BME280;63981;51.052;13.754;2023-04-08T02:06:10;100742.03;;;5.32;90.19
75063;BME280;63981;51.052;13.754;2023-04-08T02:08:35;100746.28;;;5.37;90.54
75063;BME280;63981;51.052;13.754;2023-04-08T02:11:02;100744.44;;;5.39;90.10
75063;BME280;63981;51.052;13.754;2023-04-08T02:13:29;100749.94;;;5.31;91.02
75063;BME280;63981;51.052;13.754;2023-04-08T02:16:03;100749.31;;;5.24;90.67
75063;BME280;63981;51.052;13.754;2023-04-08T02:18:30;100749.09;;;5.30;90.70
75063;BME280;63981;51.052;13.754;2023-04-08T02:21:10;100744.78;;;5.29;90.77
75063;BME280;63981;51.052;13.754;2023-04-08T02:23:39;100744.09;;;5.24;91.50
75063;BME280;63981;51.052;13.754;2023-04-08T02:26:12;100748.19;;;5.31;90.98
75063;BME280;63981;51.052;13.754;2023-04-08T02:28:39;100742.00;;;5.34;90.84
75063;BME280;63981;51.052;13.754;2023-04-08T02:31:11;100747.44;;;5.28;90.56
75063;BME280;63981;51.052;13.754;2023-04-08T02:33:43;100745.56;;;5.31;90.50
75063;BME280;63981;51.052;13.754;2023-04-08T02:36:11;100669.94;;;4.79;91.52
75063;BME280;63981;51.052;13.754;2023-04-08T02:38:37;100744.88;;;5.26;91.48
75063;BME280;63981;51.052;13.754;2023-04-08T02:41:03;100729.09;;;5.29;91.09
75063;BME280;63981;51.052;13.754;2023-04-08T02:43:29;100745.81;;;5.49;90.95
75063;BME280;63981;51.052;13.754;2023-04-08T02:45:58;100748.75;;;5.40;91.32
75063;BME280;63981;51.052;13.754;2023-04-08T02:48:29;100754.19;;;5.33;91.79
75063;BME280;63981;51.052;13.754;2023-04-08T02:50:54;100762.94;;;5.34;91.34
75063;BME280;63981;51.052;13.754;2023-04-08T02:53:22;100753.09;;;5.41;91.47
75063;BME280;63981;51.052;13.754;2023-04-08T02:55:48;100763.28;;;5.48;91.96
75063;BME280;63981;51.052;13.754;2023-04-08T02:58:13;100577.91;;;4.49;91.61
75063;BME280;63981;51.052;13.754;2023-04-08T03:00:39;100763.72;;;5.36;91.65
75063;BME280;63981;51.052;13.754;2023-04-08T03:03:04;100768.16;;;5.34;91.25
75063;BME280;63981;51.052;13.754;2023-04-08T03:05:33;100759.09;;;5.43;91.95
75063;BME280;63981;51.052;13.754;2023-04-08T03:07:59;100761.78;;;5.65;91.78
75063;BME280;63981;51.052;13.754;2023-04-08T03:10:26;100761.38;;;5.52;91.97
75063;BME280;63981;51.052;13.754;2023-04-08T03:12:52;100670.16;;;4.97;91.61
75063;BME280;63981;51.052;13.754;2023-04-08T03:15:17;100753.03;;;5.42;91.14
75063;BME280;63981;51.052;13.754;2023-04-08T03:17:43;100759.75;;;5.49;91.66
75063;BME280;63981;51.052;13.754;2023-04-08T03:20:09;100765.78;;;5.51;91.57
75063;BME280;63981;51.052;13.754;2023-04-08T03:22:35;100761.50;;;5.49;92.07
75063;BME280;63981;51.052;13.754;2023-04-08T03:25:01;100741.13;;;5.33;91.85
75063;BME280;63981;51.052;13.754;2023-04-08T03:27:27;100752.22;;;5.40;92.06
75063;BME280;63981;51.052;13.754;2023-04-08T03:29:52;100752.28;;;5.39;92.86
75063;BME280;63981;51.052;13.754;2023-04-08T03:32:18;100754.00;;;5.40;91.60
75063;BME280;63981;51.052;13.754;2023-04-08T03:34:44;100691.78;;;5.26;92.45
75063;BME280;63981;51.052;13.754;2023-04-08T03:37:10;100748.88;;;5.37;92.95
75063;BME280;63981;51.052;13.754;2023-04-08T03:39:37;100754.19;;;5.33;93.04
75063;BME280;63981;51.052;13.754;2023-04-08T03:42:02;100760.81;;;5.44;92.78
75063;BME280;63981;51.052;13.754;2023-04-08T03:44:28;100759.09;;;5.43;91.89
75063;BME280;63981;51.052;13.754;2023-04-08T03:46:54;100755.47;;;5.47;92.56
75063;BME280;63981;51.052;13.754;2023-04-08T03:49:20;100746.75;;;5.46;93.35
75063;BME280;63981;51.052;13.754;2023-04-08T03:51:46;100749.38;;;5.46;92.11
75063;BME280;63981;51.052;13.754;2023-04-08T03:54:12;100744.16;;;5.23;92.63
75063;BME280;63981;51.052;13.754;2023-04-08T03:56:37;100753.66;;;5.49;91.90
75063;BME280;63981;51.052;13.754;2023-04-08T03:59:03;100719.03;;;5.42;92.10
75063;BME280;63981;51.052;13.754;2023-04-08T04:01:29;100756.84;;;5.57;92.72
75063;BME280;63981;51.052;13.754;2023-04-08T04:03:57;100750.94;;;5.52;92.80
75063;BME280;63981;51.052;13.754;2023-04-08T04:06:22;100752.16;;;5.42;92.97
75063;BME280;63981;51.052;13.754;2023-04-08T04:08:48;100747.31;;;5.31;93.10
75063;BME280;63981;51.052;13.754;2023-04-08T04:11:15;100775.06;;;5.58;93.36
75063;BME280;63981;51.052;13.754;2023-04-08T04:13:41;100774.34;;;5.55;93.02
75063;BME280;63981;51.052;13.754;2023-04-08T04:16:06;100769.81;;;5.60;93.13
75063;BME280;63981;51.052;13.754;2023-04-08T04:18:32;100767.28;;;5.57;92.53
75063;BME280;63981;51.052;13.754;2023-04-08T04:20:58;100774.16;;;5.59;91.64
75063;BME280;63981;51.052;13.754;2023-04-08T04:23:23;100775.50;;;5.48;92.46
75063;BME280;63981;51.052;13.754;2023-04-08T04:25:50;100776.84;;;5.58;92.57
75063;BME280;63981;51.052;13.754;2023-04-08T04:28:16;100778.41;;;5.63;92.89
75063;BME280;63981;51.052;13.754;2023-04-08T04:30:41;100775.41;;;5.73;92.49
75063;BME280;63981;51.052;13.754;2023-04-08T04:33:07;100776.63;;;5.64;92.44
75063;BME280;63981;51.052;13.754;2023-04-08T04:35:33;100783.78;;;5.59;92.17
75063;BME280;63981;51.052;13.754;2023-04-08T04:37:58;100781.94;;;5.84;92.57
75063;BME280;63981;51.052;13.754;2023-04-08T04:40:24;100778.66;;;5.79;92.47
75063;BME280;63981;51.052;13.754;2023-04-08T04:42:50;100759.13;;;5.66;92.60
75063;BME280;63981;51.052;13.754;2023-04-08T04:45:16;100784.69;;;5.81;92.10
75063;BME280;63981;51.052;13.754;2023-04-08T04:47:42;100790.03;;;5.78;92.22
75063;BME280;63981;51.052;13.754;2023-04-08T04:50:07;100790.66;;;5.85;92.95
75063;BME280;63981;51.052;13.754;2023-04-08T04:52:35;100797.97;;;6.00;92.69
75063;BME280;63981;51.052;13.754;2023-04-08T04:55:01;100796.50;;;5.93;92.21
75063;BME280;63981;51.052;13.754;2023-04-08T04:57:26;100794.09;;;6.32;91.99
75063;BME280;63981;51.052;13.754;2023-04-08T04:59:52;100804.75;;;6.28;91.75
75063;BME280;63981;51.052;13.754;2023-04-08T05:02:18;100812.06;;;6.19;92.42
75063;BME280;63981;51.052;13.754;2023-04-08T05:04:43;100807.19;;;6.32;91.68
75063;BME280;63981;51.052;13.754;2023-04-08T05:07:09;100807.16;;;6.10;91.92
75063;BME280;63981;51.052;13.754;2023-04-08T05:09:35;100802.00;;;6.09;91.59
75063;BME280;63981;51.052;13.754;2023-04-08T05:12:00;100803.56;;;5.91;92.20
75063;BME280;63981;51.052;13.754;2023-04-08T05:14:29;100806.91;;;5.95;91.47
75063;BME280;63981;51.052;13.754;2023-04-08T05:16:55;100796.38;;;5.96;91.60
75063;BME280;63981;51.052;13.754;2023-04-08T05:19:21;100811.44;;;5.89;92.71
75063;BME280;63981;51.052;13.754;2023-04-08T05:21:46;100800.09;;;5.90;92.37
75063;BME280;63981;51.052;13.754;2023-04-08T05:24:12;100794.94;;;5.87;92.41
75063;BME280;63981;51.052;13.754;2023-04-08T05:26:38;100807.09;;;5.90;92.05
75063;BME280;63981;51.052;13.754;2023-04-08T05:29:03;100808.03;;;5.87;92.15
75063;BME280;63981;51.052;13.754;2023-04-08T05:31:29;100818.09;;;5.98;92.33
75063;BME280;63981;51.052;13.754;2023-04-08T05:33:55;100811.28;;;5.94;92.14
75063;BME280;63981;51.052;13.754;2023-04-08T05:36:20;100819.00;;;5.97;92.69
75063;BME280;63981;51.052;13.754;2023-04-08T05:38:46;100817.63;;;5.87;92.69
75063;BME280;63981;51.052;13.754;2023-04-08T05:41:12;100823.03;;;5.82;92.59
75063;BME280;63981;51.052;13.754;2023-04-08T05:43:38;100817.09;;;6.02;91.92
75063;BME280;63981;51.052;13.754;2023-04-08T05:46:07;100818.72;;;6.05;92.56
75063;BME280;63981;51.052;13.754;2023-04-08T05:48:33;100825.06;;;5.99;92.91
75063;BME280;63981;51.052;13.754;2023-04-08T05:50:59;100821.69;;;5.96;92.09
75063;BME280;63981;51.052;13.754;2023-04-08T05:53:25;100828.47;;;6.01;92.99
75063;BME280;63981;51.052;13.754;2023-04-08T05:55:51;100826.78;;;6.22;92.17
75063;BME280;63981;51.052;13.754;2023-04-08T05:58:17;100806.28;;;6.33;92.17
75063;BME280;63981;51.052;13.754;2023-04-08T06:00:43;100832.84;;;6.46;92.06
75063;BME280;63981;51.052;13.754;2023-04-08T06:03:08;100825.22;;;6.62;91.71
75063;BME280;63981;51.052;13.754;2023-04-08T06:05:34;100831.44;;;6.59;91.82
75063;BME280;63981;51.052;13.754;2023-04-08T06:08:00;100803.91;;;6.49;91.25
75063;BME280;63981;51.052;13.754;2023-04-08T06:10:25;100787.72;;;6.39;91.38
75063;BME280;63981;51.052;13.754;2023-04-08T06:12:51;100832.91;;;6.66;91.70
75063;BME280;63981;51.052;13.754;2023-04-08T06:15:17;100838.31;;;6.62;91.95
75063;BME280;63981;51.052;13.754;2023-04-08T06:17:43;100834.84;;;6.61;91.57
75063;BME280;63981;51.052;13.754;2023-04-08T06:20:09;100852.25;;;6.62;92.17
75063;BME280;63981;51.052;13.754;2023-04-08T06:22:35;100849.28;;;6.71;91.91
75063;BME280;63981;51.052;13.754;2023-04-08T06:25:01;100845.25;;;6.63;92.00
75063;BME280;63981;51.052;13.754;2023-04-08T06:27:27;100835.31;;;6.49;92.39
75063;BME280;63981;51.052;13.754;2023-04-08T06:29:53;100858.66;;;6.77;92.39
75063;BME280;63981;51.052;13.754;2023-04-08T06:32:20;100868.28;;;6.76;92.06
75063;BME280;63981;51.052;13.754;2023-04-08T06:34:46;100857.06;;;6.95;91.79
75063;BME280;63981;51.052;13.754;2023-04-08T06:37:12;100851.84;;;7.15;91.53
75063;BME280;63981;51.052;13.754;2023-04-08T06:39:38;100858.59;;;7.21;91.64
75063;BME280;63981;51.052;13.754;2023-04-08T06:42:04;100853.03;;;7.08;91.48
75063;BME280;63981;51.052;13.754;2023-04-08T06:44:43;100863.56;;;7.27;90.95
75063;BME280;63981;51.052;13.754;2023-04-08T06:47:10;100864.03;;;7.36;91.50
75063;BME280;63981;51.052;13.754;2023-04-08T06:49:36;100867.88;;;7.29;90.88
75063;BME280;63981;51.052;13.754;2023-04-08T06:52:02;100873.69;;;7.56;91.35
75063;BME280;63981;51.052;13.754;2023-04-08T06:54:27;100882.81;;;7.48;91.12
75063;BME280;63981;51.052;13.754;2023-04-08T06:56:53;100884.66;;;7.46;91.07
75063;BME280;63981;51.052;13.754;2023-04-08T06:59:19;100886.16;;;7.31;91.03
75063;BME280;63981;51.052;13.754;2023-04-08T07:01:44;100888.25;;;7.43;90.90
75063;BME280;63981;51.052;13.754;2023-04-08T07:04:11;100901.97;;;7.29;90.31
75063;BME280;63981;51.052;13.754;2023-04-08T07:06:36;100890.69;;;7.48;91.13
75063;BME280;63981;51.052;13.754;2023-04-08T07:09:02;100900.56;;;7.41;90.51
75063;BME280;63981;51.052;13.754;2023-04-08T07:11:29;100903.03;;;7.24;90.35
75063;BME280;63981;51.052;13.754;2023-04-08T07:13:54;100897.91;;;7.43;91.67
75063;BME280;63981;51.052;13.754;2023-04-08T07:16:20;100905.88;;;7.39;90.65
75063;BME280;63981;51.052;13.754;2023-04-08T07:18:46;100914.88;;;7.34;90.70
75063;BME280;63981;51.052;13.754;2023-04-08T07:21:12;100915.19;;;7.47;90.40
75063;BME280;63981;51.052;13.754;2023-04-08T07:23:38;100914.94;;;7.73;89.51
75063;BME280;63981;51.052;13.754;2023-04-08T07:26:04;100912.47;;;7.70;88.92
75063;BME280;63981;51.052;13.754;2023-04-08T07:28:30;100915.84;;;7.52;88.14
75063;BME280;63981;51.052;13.754;2023-04-08T07:30:56;100918.16;;;7.59;87.24
75063;BME280;63981;51.052;13.754;2023-04-08T07:33:21;100932.09;;;8.01;88.44
75063;BME280;63981;51.052;13.754;2023-04-08T07:35:48;100924.75;;;8.09;87.29
75063;BME280;63981;51.052;13.754;2023-04-08T07:38:13;100871.19;;;7.74;86.52
75063;BME280;63981;51.052;13.754;2023-04-08T07:40:39;100929.16;;;7.88;86.51
75063;BME280;63981;51.052;13.754;2023-04-08T07:43:05;100938.28;;;7.99;86.51
75063;BME280;63981;51.052;13.754;2023-04-08T07:45:32;100935.28;;;8.07;86.89
75063;BME280;63981;51.052;13.754;2023-04-08T07:47:57;100936.03;;;8.11;85.97
75063;BME280;63981;51.052;13.754;2023-04-08T07:50:23;100950.38;;;7.83;85.65
75063;BME280;63981;51.052;13.754;2023-04-08T07:52:49;100941.81;;;7.98;85.56
75063;BME280;63981;51.052;13.754;2023-04-08T07:55:14;100946.97;;;7.81;84.87
75063;BME280;63981;51.052;13.754;2023-04-08T07:57:40;100953.25;;;7.77;84.32
75063;BME280;63981;51.052;13.754;2023-04-08T08:00:06;100948.81;;;8.18;84.58
75063;BME280;63981;51.052;13.754;2023-04-08T08:02:38;100952.50;;;8.33;84.14
75063;BME280;63981;51.052;13.754;2023-04-08T08:05:04;100948.41;;;8.27;81.71
75063;BME280;63981;51.052;13.754;2023-04-08T08:07:30;100959.91;;;8.25;82.02
75063;BME280;63981;51.052;13.754;2023-04-08T08:09:56;100953.13;;;8.58;80.98
75063;BME280;63981;51.052;13.754;2023-04-08T08:12:22;100958.09;;;8.83;80.78
75063;BME280;63981;51.052;13.754;2023-04-08T08:14:47;100957.31;;;9.00;81.57
75063;BME280;63981;51.052;13.754;2023-04-08T08:17:13;100957.41;;;8.61;79.85
75063;BME280;63981;51.052;13.754;2023-04-08T08:19:38;100960.66;;;8.66;81.16
75063;BME280;63981;51.052;13.754;2023-04-08T08:22:04;100962.31;;;8.50;77.80
75063;BME280;63981;51.052;13.754;2023-04-08T08:24:30;100966.63;;;8.70;80.92
75063;BME280;63981;51.052;13.754;2023-04-08T08:26:56;100965.41;;;8.58;79.78
75063;BME280;63981;51.052;13.754;2023-04-08T08:29:22;100974.28;;;8.37;78.14
75063;BME280;63981;51.052;13.754;2023-04-08T08:31:47;100966.97;;;8.81;77.49
75063;BME280;63981;51.052;13.754;2023-04-08T08:34:13;100966.97;;;8.81;77.13
75063;BME280;63981;51.052;13.754;2023-04-08T08:36:39;100978.91;;;9.07;78.24
75063;BME280;63981;51.052;13.754;2023-04-08T08:39:05;100877.19;;;8.35;76.32
75063;BME280;63981;51.052;13.754;2023-04-08T08:41:34;100980.25;;;8.97;74.73
75063;BME280;63981;51.052;13.754;2023-04-08T08:44:06;100992.94;;;8.89;75.90
75063;BME280;63981;51.052;13.754;2023-04-08T08:46:33;100987.81;;;8.48;74.47
75063;BME280;63981;51.052;13.754;2023-04-08T08:48:59;100970.97;;;8.90;75.25
75063;BME280;63981;51.052;13.754;2023-04-08T08:51:27;100980.06;;;9.01;72.53
75063;BME280;63981;51.052;13.754;2023-04-08T08:53:53;100987.56;;;9.45;73.43
75063;BME280;63981;51.052;13.754;2023-04-08T08:56:18;100996.81;;;9.18;71.18
75063;BME280;63981;51.052;13.754;2023-04-08T08:58:44;100987.22;;;8.98;70.71
75063;BME280;63981;51.052;13.754;2023-04-08T09:01:47;101001.13;;;9.19;71.73
75063;BME280;63981;51.052;13.754;2023-04-08T09:04:15;101000.84;;;9.25;69.74
75063;BME280;63981;51.052;13.754;2023-04-08T09:06:43;100935.56;;;10.18;70.36
75063;BME280;63981;51.052;13.754;2023-04-08T09:09:09;100998.22;;;10.95;68.47
75063;BME280;63981;51.052;13.754;2023-04-08T09:11:40;101003.41;;;10.47;65.99
75063;BME280;63981;51.052;13.754;2023-04-08T09:14:23;101000.13;;;10.09;63.38
75063;BME280;63981;51.052;13.754;2023-04-08T09:16:50;101009.72;;;10.10;63.85
75063;BME280;63981;51.052;13.754;2023-04-08T09:32:54;101014.78;;;11.28;63.38
75063;BME280;63981;51.052;13.754;2023-04-08T09:35:20;100976.94;;;10.33;63.78
75063;BME280;63981;51.052;13.754;2023-04-08T09:37:47;101008.81;;;9.77;66.50
75063;BME280;63981;51.052;13.754;2023-04-08T09:40:14;101028.38;;;10.73;67.02
75063;BME280;63981;51.052;13.754;2023-04-08T09:42:51;101026.97;;;10.99;64.40
75063;BME280;63981;51.052;13.754;2023-04-08T09:45:18;101018.88;;;11.18;65.09
75063;BME280;63981;51.052;13.754;2023-04-08T09:48:07;101028.00;;;10.13;65.03
75063;BME280;63981;51.052;13.754;2023-04-08T09:50:39;101033.22;;;10.32;68.01
75063;BME280;63981;51.052;13.754;2023-04-08T09:53:12;101014.91;;;10.12;67.18
75063;BME280;63981;51.052;13.754;2023-04-08T09:55:42;101032.06;;;10.03;66.80
75063;BME280;63981;51.052;13.754;2023-04-08T09:58:15;101027.31;;;9.75;67.42
75063;BME280;63981;51.052;13.754;2023-04-08T10:00:46;101039.25;;;9.82;68.67
75063;BME280;63981;51.052;13.754;2023-04-08T10:03:28;101042.50;;;10.04;67.27
75063;BME280;63981;51.052;13.754;2023-04-08T10:05:54;101035.06;;;9.95;67.26
75063;BME280;63981;51.052;13.754;2023-04-08T10:08:24;101040.19;;;10.16;67.64
75063;BME280;63981;51.052;13.754;2023-04-08T10:10:50;101035.28;;;10.43;67.18
75063;BME280;63981;51.052;13.754;2023-04-08T10:13:16;101042.06;;;10.31;64.40
75063;BME280;63981;51.052;13.754;2023-04-08T10:15:42;101035.34;;;10.58;64.11
75063;BME280;63981;51.052;13.754;2023-04-08T10:25:45;101048.78;;;10.37;63.16
75063;BME280;63981;51.052;13.754;2023-04-08T10:33:15;101054.00;;;10.54;62.30
75063;BME280;63981;51.052;13.754;2023-04-08T10:35:43;101061.19;;;10.34;61.34
75063;BME280;63981;51.052;13.754;2023-04-08T10:38:13;101049.97;;;10.31;62.43
75063;BME280;63981;51.052;13.754;2023-04-08T10:40:40;101051.50;;;10.35;62.01
75063;BME280;63981;51.052;13.754;2023-04-08T10:43:08;101054.81;;;10.56;61.75
75063;BME280;63981;51.052;13.754;2023-04-08T10:45:34;101027.00;;;10.66;60.43
75063;BME280;63981;51.052;13.754;2023-04-08T10:50:38;101038.44;;;10.82;59.55
75063;BME280;63981;51.052;13.754;2023-04-08T10:53:04;101047.56;;;11.08;59.20
75063;BME280;63981;51.052;13.754;2023-04-08T10:55:30;101047.66;;;11.84;57.82
75063;BME280;63981;51.052;13.754;2023-04-08T10:58:09;101048.75;;;12.40;55.71
75063;BME280;63981;51.052;13.754;2023-04-08T11:00:39;101046.50;;;11.74;55.79
75063;BME280;63981;51.052;13.754;2023-04-08T11:03:07;100998.19;;;11.26;56.67
75063;BME280;63981;51.052;13.754;2023-04-08T11:05:33;101047.63;;;11.54;56.13
75063;BME280;63981;51.052;13.754;2023-04-08T11:07:59;101056.75;;;11.17;57.49
75063;BME280;63981;51.052;13.754;2023-04-08T11:10:26;101051.19;;;11.53;56.54
75063;BME280;63981;51.052;13.754;2023-04-08T11:12:54;101054.00;;;10.54;57.69
75063;BME280;63981;51.052;13.754;2023-04-08T11:15:21;101043.81;;;9.79;60.41
75063;BME280;63981;51.052;13.754;2023-04-08T11:17:47;101067.03;;;9.88;60.53
75063;BME280;63981;51.052;13.754;2023-04-08T11:20:13;101060.59;;;9.76;61.63
75063;BME280;63981;51.052;13.754;2023-04-08T11:22:39;101070.88;;;10.34;60.78
75063;BME280;63981;51.052;13.754;2023-04-08T11:25:09;101069.81;;;10.54;60.47
75063;BME280;63981;51.052;13.754;2023-04-08T11:27:36;101071.84;;;10.14;60.96
75063;BME280;63981;51.052;13.754;2023-04-08T11:30:03;101076.94;;;9.65;63.53
75063;BME280;63981;51.052;13.754;2023-04-08T11:32:30;101067.31;;;9.28;64.12
75063;BME280;63981;51.052;13.754;2023-04-08T11:34:58;101042.13;;;9.41;63.75
75063;BME280;63981;51.052;13.754;2023-04-08T11:37:24;101074.94;;;9.70;64.34
75063;BME280;63981;51.052;13.754;2023-04-08T11:39:50;101076.88;;;9.84;63.95
75063;BME280;63981;51.052;13.754;2023-04-08T11:42:31;101078.03;;;10.13;63.18
75063;BME280;63981;51.052;13.754;2023-04-08T11:44:57;101083.47;;;9.93;63.34
75063;BME280;63981;51.052;13.754;2023-04-08T11:47:31;101085.09;;;10.13;62.35
75063;BME280;63981;51.052;13.754;2023-04-08T11:49:58;101077.13;;;10.49;62.79
75063;BME280;63981;51.052;13.754;2023-04-08T11:52:41;101068.41;;;10.97;62.04
75063;BME280;63981;51.052;13.754;2023-04-08T11:55:09;101080.41;;;11.18;60.76
75063;BME280;63981;51.052;13.754;2023-04-08T11:57:35;101080.00;;;11.26;58.85
75063;BME280;63981;51.052;13.754;2023-04-08T12:00:05;101082.78;;;10.58;61.30
75063;BME280;63981;51.052;13.754;2023-04-08T12:02:36;101084.53;;;10.42;62.51
75063;BME280;63981;51.052;13.754;2023-04-08T12:05:02;101084.88;;;10.69;62.28
75063;BME280;63981;51.052;13.754;2023-04-08T12:07:28;101084.22;;;10.97;62.02
75063;BME280;63981;51.052;13.754;2023-04-08T12:09:53;101087.91;;;11.26;61.41
75063;BME280;63981;51.052;13.754;2023-04-08T12:12:19;101090.94;;;11.03;60.67
75063;BME280;63981;51.052;13.754;2023-04-08T12:14:45;101089.94;;;10.56;62.27
75063;BME280;63981;51.052;13.754;2023-04-08T12:17:10;101093.28;;;10.76;62.10
75063;BME280;63981;51.052;13.754;2023-04-08T12:19:37;101089.59;;;11.59;60.20
75063;BME280;63981;51.052;13.754;2023-04-08T12:22:02;101094.78;;;11.92;58.83
75063;BME280;63981;51.052;13.754;2023-04-08T12:24:28;101093.16;;;13.06;55.23
75063;BME280;63981;51.052;13.754;2023-04-08T12:26:54;101091.34;;;16.37;50.56
75063;BME280;63981;51.052;13.754;2023-04-08T12:29:20;101082.06;;;16.43;45.42
75063;BME280;63981;51.052;13.754;2023-04-08T12:31:46;101103.38;;;12.84;55.93
75063;BME280;63981;51.052;13.754;2023-04-08T12:34:11;101107.88;;;10.99;59.99
75063;BME280;63981;51.052;13.754;2023-04-08T12:36:37;101110.22;;;11.68;59.24
75063;BME280;63981;51.052;13.754;2023-04-08T12:39:03;101108.09;;;11.74;59.11
75063;BME280;63981;51.052;13.754;2023-04-08T12:41:29;101118.41;;;11.63;59.48
75063;BME280;63981;51.052;13.754;2023-04-08T12:43:55;101115.84;;;9.95;62.37
75063;BME280;63981;51.052;13.754;2023-04-08T12:46:20;101127.88;;;9.45;65.44
75063;BME280;63981;51.052;13.754;2023-04-08T12:48:47;101125.91;;;9.87;64.03
75063;BME280;63981;51.052;13.754;2023-04-08T12:51:12;101132.53;;;10.13;62.95
75063;BME280;63981;51.052;13.754;2023-04-08T12:53:38;101130.41;;;10.55;62.36
75063;BME280;63981;51.052;13.754;2023-04-08T12:56:04;101120.66;;;10.73;60.86
75063;BME280;63981;51.052;13.754;2023-04-08T12:58:30;101111.13;;;11.19;60.85
75063;BME280;63981;51.052;13.754;2023-04-08T13:00:55;101115.50;;;11.20;59.80
75063;BME280;63981;51.052;13.754;2023-04-08T13:03:21;101117.88;;;11.25;59.07
75063;BME280;63981;51.052;13.754;2023-04-08T13:05:47;101115.84;;;11.30;58.36
75063;BME280;63981;51.052;13.754;2023-04-08T13:08:13;101120.44;;;11.58;59.72
75063;BME280;63981;51.052;13.754;2023-04-08T13:10:39;101109.94;;;12.04;56.23
75063;BME280;63981;51.052;13.754;2023-04-08T13:13:06;101117.38;;;11.66;57.18
75063;BME280;63981;51.052;13.754;2023-04-08T13:15:32;101096.34;;;11.64;58.29
75063;BME280;63981;51.052;13.754;2023-04-08T13:17:57;101114.84;;;11.80;58.14